PWSweather.com
Personal Weather Stations
Station Observations
TARRYHILL
Tarrytown, NY 10591

Tarrytown, NY 10591

Lat: 41.05185, Lon: -73.85296

Elevation: 341

Station Type: Davis Vantage Vue

www.tarrytownnyweather.com

High Low Average
Temperature 59.6°F15.3°C 42.0°F5.6°C 49.3°F9.6°C
Dew Point 43.4°F6.3°C 31.7°F-0.2°C 39.1°F3.9°C
Winds 8.1 mph 13.0 kmh Calm Calm 3.0 mph S4.8 kmh S
Wind Gusts 18.4 mph29.6 kmh -- 7.0 mph11.3 kmh
Humidity 88% 47% 69%
Pressure 30.14 in1020.7 mb 29.86 in1011.2 mb -
Precipitation 0.00 in0.0 mm - -
Hour Temp Dew Point Humidity Winds Wind Gusts Pressure Precip Precip Rate Daily Precip Total
12:00 AM 46.0°F7.8°C 39.6°F4.2°C 78% Calm Calm 1.2 mph1.9 kmh 30.07 in1018.3 mb - 0.00 in0.0 mm 0.00 in0.0 mm
12:30 AM 45.6°F7.6°C 39.7°F4.3°C 80% 1.2 mph SW1.9 kmh SW 1.2 mph1.9 kmh 30.06 in1017.9 mb - 0.00 in0.0 mm 0.00 in0.0 mm
01:00 AM 44.9°F7.2°C 39.4°F4.1°C 81% Calm Calm -- 30.06 in1017.9 mb - 0.00 in0.0 mm 0.00 in0.0 mm
01:30 AM 43.7°F6.5°C 39.2°F4.0°C 84% Calm Calm -- 30.06 in1017.9 mb - 0.00 in0.0 mm 0.00 in0.0 mm
02:00 AM 43.4°F6.3°C 39.2°F4.0°C 85% Calm Calm 2.3 mph3.7 kmh 30.05 in1017.6 mb - 0.00 in0.0 mm 0.00 in0.0 mm
02:30 AM 43.9°F6.6°C 39.3°F4.1°C 84% 1.2 mph S1.9 kmh S 3.5 mph5.6 kmh 30.04 in1017.3 mb - 0.00 in0.0 mm 0.00 in0.0 mm
03:00 AM 44.8°F7.1°C 39.3°F4.1°C 81% 1.2 mph S1.9 kmh S 3.5 mph5.6 kmh 30.04 in1017.3 mb - 0.00 in0.0 mm 0.00 in0.0 mm
03:30 AM 44.2°F6.8°C 39.1°F3.9°C 82% Calm Calm 3.5 mph5.6 kmh 30.03 in1016.9 mb - 0.00 in0.0 mm 0.00 in0.0 mm
04:00 AM 43.9°F6.6°C 39.1°F3.9°C 83% Calm Calm 1.2 mph1.9 kmh 30.02 in1016.6 mb - 0.00 in0.0 mm 0.00 in0.0 mm
04:30 AM 43.1°F6.2°C 38.9°F3.8°C 85% Calm Calm 2.3 mph3.7 kmh 30.02 in1016.6 mb - 0.00 in0.0 mm 0.00 in0.0 mm
05:00 AM 42.7°F5.9°C 39.1°F3.9°C 87% 1.2 mph SE1.9 kmh SE 2.3 mph3.7 kmh 30.01 in1016.3 mb - 0.00 in0.0 mm 0.00 in0.0 mm
05:30 AM 42.8°F6.0°C 38.9°F3.8°C 86% Calm Calm -- 30.00 in1015.9 mb - 0.00 in0.0 mm 0.00 in0.0 mm
06:00 AM 42.6°F5.9°C 38.7°F3.7°C 86% Calm Calm -- 30.01 in1016.3 mb - 0.00 in0.0 mm 0.00 in0.0 mm
06:30 AM 42.0°F5.6°C 38.1°F3.4°C 86% Calm Calm -- 30.00 in1015.9 mb - 0.00 in0.0 mm 0.00 in0.0 mm
07:00 AM 42.0°F5.6°C 38.4°F3.6°C 87% Calm Calm -- 30.00 in1015.9 mb - 0.00 in0.0 mm 0.00 in0.0 mm
07:30 AM 42.0°F5.6°C 38.7°F3.7°C 88% Calm Calm 1.2 mph1.9 kmh 29.99 in1015.6 mb - 0.00 in0.0 mm 0.00 in0.0 mm
08:00 AM 42.1°F5.6°C 38.8°F3.8°C 88% Calm Calm 1.2 mph1.9 kmh 29.99 in1015.6 mb - 0.00 in0.0 mm 0.00 in0.0 mm
08:30 AM 42.6°F5.9°C 39.3°F4.1°C 88% Calm Calm 1.2 mph1.9 kmh 30.00 in1015.9 mb - 0.00 in0.0 mm 0.00 in0.0 mm
09:00 AM 44.1°F6.7°C 39.6°F4.2°C 84% 1.2 mph S1.9 kmh S 3.5 mph5.6 kmh 29.99 in1015.6 mb - 0.00 in0.0 mm 0.00 in0.0 mm
09:30 AM 46.8°F8.2°C 40.9°F4.9°C 80% Calm Calm 2.3 mph3.7 kmh 29.99 in1015.6 mb - 0.00 in0.0 mm 0.00 in0.0 mm
10:00 AM 49.1°F9.5°C 41.2°F5.1°C 74% 4.6 mph S7.4 kmh S 8.1 mph13.0 kmh 29.98 in1015.2 mb - 0.00 in0.0 mm 0.00 in0.0 mm
10:30 AM 51.4°F10.8°C 41.9°F5.5°C 70% 4.6 mph SSW7.4 kmh SSW 8.1 mph13.0 kmh 29.98 in1015.2 mb - 0.00 in0.0 mm 0.00 in0.0 mm
11:00 AM 53.0°F11.7°C 42.7°F5.9°C 68% 1.2 mph S1.9 kmh S 10.4 mph16.7 kmh 29.96 in1014.6 mb - 0.00 in0.0 mm 0.00 in0.0 mm
11:30 AM 54.4°F12.4°C 42.5°F5.8°C 64% 4.6 mph SSW7.4 kmh SSW 11.5 mph18.5 kmh 29.94 in1013.9 mb - 0.00 in0.0 mm 0.00 in0.0 mm
12:00 PM 56.6°F13.7°C 42.0°F5.6°C 58% 3.5 mph SW5.6 kmh SW 9.2 mph14.8 kmh 29.93 in1013.5 mb - 0.00 in0.0 mm 0.00 in0.0 mm
12:30 PM 58.1°F14.5°C 43.4°F6.3°C 58% 3.5 mph SW5.6 kmh SW 6.9 mph11.1 kmh 29.92 in1013.2 mb - 0.00 in0.0 mm 0.00 in0.0 mm
01:00 PM 58.9°F14.9°C 42.3°F5.7°C 54% 5.8 mph WSW9.3 kmh WSW 11.5 mph18.5 kmh 29.90 in1012.5 mb - 0.00 in0.0 mm 0.00 in0.0 mm
01:30 PM 59.6°F15.3°C 42.9°F6.1°C 54% 4.6 mph SW7.4 kmh SW 5.8 mph9.3 kmh 29.88 in1011.9 mb - 0.00 in0.0 mm 0.00 in0.0 mm
02:00 PM 58.5°F14.7°C 41.9°F5.5°C 54% 8.1 mph S13.0 kmh S 12.7 mph20.4 kmh 29.87 in1011.5 mb - 0.00 in0.0 mm 0.00 in0.0 mm
02:30 PM 58.4°F14.7°C 41.8°F5.4°C 54% 2.3 mph SW3.7 kmh SW 3.5 mph5.6 kmh 29.86 in1011.2 mb - 0.00 in0.0 mm 0.00 in0.0 mm
03:00 PM 58.6°F14.8°C 42.0°F5.6°C 54% 4.6 mph SW7.4 kmh SW 10.4 mph16.7 kmh 29.86 in1011.2 mb - 0.00 in0.0 mm 0.00 in0.0 mm
03:30 PM 58.3°F14.6°C 41.7°F5.4°C 54% 4.6 mph WSW7.4 kmh WSW 18.4 mph29.6 kmh 29.87 in1011.5 mb - 0.00 in0.0 mm 0.00 in0.0 mm
04:00 PM 59.6°F15.3°C 39.3°F4.1°C 47% 4.6 mph WSW7.4 kmh WSW 9.2 mph14.8 kmh 29.88 in1011.9 mb - 0.00 in0.0 mm 0.00 in0.0 mm
04:30 PM 58.4°F14.7°C 39.3°F4.1°C 49% 5.8 mph S9.3 kmh S 13.8 mph22.2 kmh 29.89 in1012.2 mb - 0.00 in0.0 mm 0.00 in0.0 mm
05:00 PM 54.7°F12.6°C 41.9°F5.5°C 62% 5.8 mph S9.3 kmh S 10.4 mph16.7 kmh 29.92 in1013.2 mb - 0.00 in0.0 mm 0.00 in0.0 mm
05:30 PM 54.7°F12.6°C 41.5°F5.3°C 61% 4.6 mph SW7.4 kmh SW 12.7 mph20.4 kmh 29.92 in1013.2 mb - 0.00 in0.0 mm 0.00 in0.0 mm
06:00 PM 53.5°F11.9°C 41.2°F5.1°C 63% 3.5 mph SW5.6 kmh SW 8.1 mph13.0 kmh 29.94 in1013.9 mb - 0.00 in0.0 mm 0.00 in0.0 mm
06:30 PM 53.0°F11.7°C 39.5°F4.2°C 60% 6.9 mph SW11.1 kmh SW 11.5 mph18.5 kmh 29.96 in1014.6 mb - 0.00 in0.0 mm 0.00 in0.0 mm
07:00 PM 52.4°F11.3°C 38.9°F3.8°C 60% 4.6 mph WSW7.4 kmh WSW 12.7 mph20.4 kmh 29.99 in1015.6 mb - 0.00 in0.0 mm 0.00 in0.0 mm
07:30 PM 51.5°F10.8°C 38.0°F3.3°C 60% 2.3 mph E3.7 kmh E 6.9 mph11.1 kmh 30.00 in1015.9 mb - 0.00 in0.0 mm 0.00 in0.0 mm
08:00 PM 50.3°F10.2°C 37.8°F3.2°C 62% 4.6 mph SSE7.4 kmh SSE 9.2 mph14.8 kmh 30.03 in1016.9 mb - 0.00 in0.0 mm 0.00 in0.0 mm
08:30 PM 49.7°F9.8°C 36.7°F2.6°C 61% 2.3 mph ESE3.7 kmh ESE 6.9 mph11.1 kmh 30.04 in1017.3 mb - 0.00 in0.0 mm 0.00 in0.0 mm
09:00 PM 48.9°F9.4°C 35.2°F1.8°C 59% 2.3 mph S3.7 kmh S 9.2 mph14.8 kmh 30.05 in1017.6 mb - 0.00 in0.0 mm 0.00 in0.0 mm
09:30 PM 48.4°F9.1°C 34.8°F1.6°C 59% 3.5 mph S5.6 kmh S 8.1 mph13.0 kmh 30.07 in1018.3 mb - 0.00 in0.0 mm 0.00 in0.0 mm
10:00 PM 48.1°F8.9°C 33.6°F0.9°C 57% 4.6 mph S7.4 kmh S 8.1 mph13.0 kmh 30.08 in1018.6 mb - 0.00 in0.0 mm 0.00 in0.0 mm
10:30 PM 47.0°F8.3°C 36.6°F2.6°C 67% 3.5 mph NNE5.6 kmh NNE 9.2 mph14.8 kmh 30.10 in1019.3 mb - 0.00 in0.0 mm 0.00 in0.0 mm
11:00 PM 45.5°F7.5°C 34.0°F1.1°C 64% 5.8 mph SW9.3 kmh SW 15.0 mph24.1 kmh 30.11 in1019.6 mb - 0.00 in0.0 mm 0.00 in0.0 mm
11:30 PM 44.7°F7.1°C 34.1°F1.2°C 66% 3.5 mph E5.6 kmh E 8.1 mph13.0 kmh 30.11 in1019.6 mb - 0.00 in0.0 mm 0.00 in0.0 mm